Alpine, New York
Current Conditions -  °F | °C
As of 4:53 AM on Sunday 26 Oct 2014 (Local Time) from KELM Reporting Station
Clear Clear  
Wind Chill: 40°   Ceiling: Unl
Heat Index: 40°   Visibility: 10mi
Dew Point: 37°   Wind: 3mph
Humidity: 89%   Direction: 260°W
Pressure: 29.65"   Gusts: NA
Location:  42.31°N, 76.72°W
Report Text: KELM 260853Z AUTO 26003KT 10SM CLR 04/03 A2965 RMK AO2 SLP039 T00440028 51006
Loading
Personal Weather Stations






























Interactive Weather Map
Tropical Storm Tracking
New forecast layout! Learn more

10-Day Weather Forecast

Advertisements
Track Severe Weather on mobile